Jrs Merkur — V2FD8 — position and weather

sailwx.info

Track history (hours):
 
Tides and Currents Weather Stations Pressure Air Temp Water Temp Dewpoint Dewpoint Depression Visibility Wind Speed Wind Dir Waves Ship Positions

Jrs Merkur

Last reported at 2015-Jan-30 10:33 UTC. Time now 2015-Jan-30 12:33 UTC.
Position N 51°37' E 002°17'.

Length 107 m; draft 8.1 m.

Type: Cargo ship. MMSI: 305644000.

Date/timePositionNaut miles runAvg speedWind from/ knotsBaromVisibWave heightAir tempDewpointWater temp
2015-Jan-30 10:33N 51°37' E 002°17'8 8.0
2015-Jan-30 09:33N 51°30' E 002°12'8 7.9
2015-Jan-30 08:33N 51°22' E 002°09'8 7.5
2015-Jan-30 07:29N 51°15' E 002°05'9 9.4
2015-Jan-30 06:34N 51°10' E 001°53'9 9.0
2015-Jan-30 05:33N 51°04' E 001°42'9 8.6
2015-Jan-30 04:33N 50°58' E 001°33'  
2015-Jan-26 04:22N 39°51' W 009°50'24 8.5
2015-Jan-26 01:32N 39°27' W 009°51'10 9.1
2015-Jan-26 00:27N 39°17' W 009°50'8 9.3
2015-Jan-25 23:33N 39°08' W 009°50'9 9.1
2015-Jan-25 22:33N 38°59' W 009°51'9 9.3
2015-Jan-25 21:33N 38°50' W 009°50'9 9.3
2015-Jan-25 20:33N 38°41' W 009°50'9 9.3
2015-Jan-25 19:33N 38°32' W 009°48'9 9.4
2015-Jan-25 18:33N 38°22' W 009°45'9 9.4
2015-Jan-25 17:33N 38°13' W 009°43'10 9.4
2015-Jan-25 16:33N 38°04' W 009°40'10 9.5
2015-Jan-25 15:33N 37°55' W 009°37'1010.2
2015-Jan-25 14:33N 37°45' W 009°34'10 9.9
2015-Jan-25 13:33N 37°35' W 009°31'10 9.8
2015-Jan-25 12:33N 37°26' W 009°28'12 9.6
2015-Jan-25 11:19N 37°14' W 009°25'7 9.3
2015-Jan-25 10:33N 37°07' W 009°23'9 9.3
2015-Jan-25 09:33N 36°58' W 009°21'9 9.4
2015-Jan-25 08:33N 36°50' W 009°15'19 9.6
2015-Jan-25 06:33N 36°41' W 008°55'10 9.8
2015-Jan-25 05:33N 36°38' W 008°43'10 9.9
2015-Jan-25 04:33N 36°35' W 008°31'148 9.8
2015-Jan-24 13:31N 35°58' W 005°33'7 7.4
2015-Jan-24 12:33N 36°00' W 005°25'6 5.9
2015-Jan-24 11:33N 36°02' W 005°18'  
Track history (hours):
 
Tides and Currents Weather Stations Pressure Air Temp Water Temp Dewpoint Dewpoint Depression Visibility Wind Speed Wind Dir Waves Ship Positions

Jrs Merkur

Last reported at 2015-Jan-30 10:33 UTC. Time now 2015-Jan-30 12:33 UTC.
Position N 51°37' E 002°17'.

Length 107 m; draft 8.1 m.

Type: Cargo ship. MMSI: 305644000.

Date/timePositionNaut miles runAvg speedWind from/ knotsBaromVisibWave heightAir tempDewpointWater temp
2015-Jan-30 10:33N 51°37' E 002°17'8 8.0
2015-Jan-30 09:33N 51°30' E 002°12'8 7.9
2015-Jan-30 08:33N 51°22' E 002°09'8 7.5
2015-Jan-30 07:29N 51°15' E 002°05'9 9.4
2015-Jan-30 06:34N 51°10' E 001°53'9 9.0
2015-Jan-30 05:33N 51°04' E 001°42'9 8.6
2015-Jan-30 04:33N 50°58' E 001°33'  
2015-Jan-26 04:22N 39°51' W 009°50'24 8.5
2015-Jan-26 01:32N 39°27' W 009°51'10 9.1
2015-Jan-26 00:27N 39°17' W 009°50'8 9.3
2015-Jan-25 23:33N 39°08' W 009°50'9 9.1
2015-Jan-25 22:33N 38°59' W 009°51'9 9.3
2015-Jan-25 21:33N 38°50' W 009°50'9 9.3
2015-Jan-25 20:33N 38°41' W 009°50'9 9.3
2015-Jan-25 19:33N 38°32' W 009°48'9 9.4
2015-Jan-25 18:33N 38°22' W 009°45'9 9.4
2015-Jan-25 17:33N 38°13' W 009°43'10 9.4
2015-Jan-25 16:33N 38°04' W 009°40'10 9.5
2015-Jan-25 15:33N 37°55' W 009°37'1010.2
2015-Jan-25 14:33N 37°45' W 009°34'10 9.9
2015-Jan-25 13:33N 37°35' W 009°31'10 9.8
2015-Jan-25 12:33N 37°26' W 009°28'12 9.6
2015-Jan-25 11:19N 37°14' W 009°25'7 9.3
2015-Jan-25 10:33N 37°07' W 009°23'9 9.3
2015-Jan-25 09:33N 36°58' W 009°21'9 9.4
2015-Jan-25 08:33N 36°50' W 009°15'19 9.6
2015-Jan-25 06:33N 36°41' W 008°55'10 9.8
2015-Jan-25 05:33N 36°38' W 008°43'10 9.9
2015-Jan-25 04:33N 36°35' W 008°31'148 9.8
2015-Jan-24 13:31N 35°58' W 005°33'7 7.4
2015-Jan-24 12:33N 36°00' W 005°25'6 5.9
2015-Jan-24 11:33N 36°02' W 005°18'  

Dump ship's entire track history